Terminal Aerodrome Forecast
Issued by NWS Central Illinois

Home | Current Version | Previous Version | Text Only | Print | Product List | Glossary On
Versions: 1 2 3 4 5 6 7 8 9 10 11 12 13 14 15 16 17 18 19 20 21 22 23 24 25 26 27 28
903
FTUS43 KILX 250016 CCA
TAFPIA
TAF COR
KPIA 250016Z 2500/2524 23007KT P6SM VCTS SCT045CB BKN110
      TEMPO 2500/2503 VRB25G40KT 2SM +TSRA BR BKN025CB
     FM250400 25005KT P6SM SCT040 BKN250
     FM250800 34005KT 5SM BR SCT025 BKN120
     FM251300 01006KT P6SM SCT035 BKN250=

USA.gov is the U.S. government's official web portal to all federal, state and local government web resources and services.